Sykeston, North Dakota
Current Conditions -  °F | °C
As of 1:35 AM on Saturday 29 Nov 2014 (Local Time) from K46D Reporting Station
Overcast Overcast  
Wind Chill:   Ceiling: 10000
Heat Index: 16°   Visibility: 10mi
Dew Point: 16°   Wind: 14mph
Humidity: 100%   Direction: 150°SSE
Pressure: 29.4"   Gusts: NA
Location:  47.47°N, 99.4°W
Report Text: K46D 290735Z AUTO 15012KT 10SM OVC100 M09/M09 A2940 RMK AO2
Loading
Personal Weather Stations






























Interactive Weather Map New forecast layout! Learn more

10-Day Weather Forecast

Advertisements
Track Severe Weather on mobile